createdAt,value
2022-10-26T00:01:14.448Z,100321.00
2022-10-26T00:03:44.205Z,100316.00
2022-10-26T00:06:17.984Z,100325.00
2022-10-26T00:08:45.892Z,100316.00
2022-10-26T00:11:13.880Z,100318.00
2022-10-26T00:13:41.962Z,100333.00
2022-10-26T00:16:27.460Z,100320.00
2022-10-26T00:18:54.586Z,100300.00
2022-10-26T00:21:21.504Z,100325.00
2022-10-26T00:23:48.410Z,100331.00
2022-10-26T00:26:15.412Z,100326.00
2022-10-26T00:28:42.310Z,100324.00
2022-10-26T00:31:16.596Z,100326.00
2022-10-26T00:33:43.893Z,100335.00
2022-10-26T00:36:13.924Z,100335.00
2022-10-26T00:38:45.928Z,100325.00
2022-10-26T00:41:16.402Z,100332.00
2022-10-26T00:43:43.440Z,100326.00
2022-10-26T00:46:18.377Z,100331.00
2022-10-26T00:48:51.168Z,100315.00
2022-10-26T00:51:27.335Z,100335.00
2022-10-26T00:53:56.010Z,100337.00
2022-10-26T00:56:24.038Z,100314.00
2022-10-26T00:58:52.064Z,100325.00
2022-10-26T01:01:19.013Z,100332.00
2022-10-26T01:03:47.215Z,100335.00
2022-10-26T01:06:15.756Z,100335.00
2022-10-26T01:08:44.134Z,100345.00
2022-10-26T01:11:12.386Z,100345.00
2022-10-26T01:13:41.944Z,100342.00
2022-10-26T01:16:30.323Z,100344.00
2022-10-26T01:19:30.985Z,100343.00
2022-10-26T01:22:14.919Z,100350.00
2022-10-26T01:25:12.864Z,100350.00
2022-10-26T01:27:48.203Z,100338.00
2022-10-26T01:30:40.105Z,100348.00
2022-10-26T01:33:37.801Z,100351.00
2022-10-26T01:36:26.531Z,100360.00
2022-10-26T01:39:21.817Z,100346.00
2022-10-26T01:41:55.045Z,100349.00
2022-10-26T01:44:44.720Z,100344.00
2022-10-26T01:47:16.308Z,100342.00
2022-10-26T01:49:53.645Z,100350.00
2022-10-26T01:52:21.552Z,100354.00
2022-10-26T01:54:48.589Z,100357.00
2022-10-26T01:57:20.144Z,100354.00
2022-10-26T02:00:10.970Z,100357.00
2022-10-26T02:03:01.388Z,100359.00
2022-10-26T02:05:59.921Z,100364.00
2022-10-26T02:08:44.253Z,100358.00
2022-10-26T02:11:40.889Z,100359.00
2022-10-26T02:14:54.337Z,100363.00
2022-10-26T02:17:36.397Z,100360.00
2022-10-26T02:20:08.993Z,100356.00
2022-10-26T02:22:41.498Z,100363.00
2022-10-26T02:25:16.063Z,100357.00
2022-10-26T02:27:52.546Z,100362.00
2022-10-26T02:30:20.113Z,100340.00
2022-10-26T02:32:53.337Z,100354.00
2022-10-26T02:35:27.943Z,100369.00
2022-10-26T02:37:59.696Z,100364.00
2022-10-26T02:40:29.771Z,100376.00
2022-10-26T02:43:04.472Z,100362.00
2022-10-26T02:45:41.135Z,100374.00
2022-10-26T02:48:08.160Z,100375.00
2022-10-26T02:51:11.525Z,100372.00
2022-10-26T02:54:01.808Z,100371.00
2022-10-26T02:56:39.260Z,100375.00
2022-10-26T02:59:11.237Z,100375.00
2022-10-26T03:01:39.172Z,100363.00
2022-10-26T03:04:06.300Z,100367.00
2022-10-26T03:06:33.278Z,100373.00
2022-10-26T03:09:00.218Z,100371.00
2022-10-26T03:11:27.152Z,100374.00
2022-10-26T03:13:54.148Z,100378.00
2022-10-26T03:16:21.328Z,100376.00
2022-10-26T03:18:48.218Z,100376.00
2022-10-26T03:21:15.112Z,100372.00
2022-10-26T03:23:42.056Z,100376.00
2022-10-26T03:26:08.984Z,100372.00
2022-10-26T03:28:36.895Z,100370.00
2022-10-26T03:31:03.784Z,100369.00
2022-10-26T03:33:30.721Z,100371.00
2022-10-26T03:35:57.752Z,100377.00
2022-10-26T03:38:25.087Z,100378.00
2022-10-26T03:40:52.542Z,100368.00
2022-10-26T03:43:19.449Z,100369.00
2022-10-26T03:45:46.553Z,100383.00
2022-10-26T03:48:14.455Z,100381.00
2022-10-26T03:50:41.616Z,100388.00
2022-10-26T03:53:08.685Z,100388.00
2022-10-26T03:55:35.889Z,100401.00
2022-10-26T03:58:02.808Z,100403.00
2022-10-26T04:00:29.808Z,100393.00
2022-10-26T04:03:00.422Z,100396.00
2022-10-26T04:05:29.381Z,100398.00
2022-10-26T04:07:59.656Z,100400.00
2022-10-26T04:10:28.081Z,100405.00
2022-10-26T04:12:56.015Z,100386.00
2022-10-26T04:15:23.641Z,100405.00
2022-10-26T04:18:00.568Z,100413.00
2022-10-26T04:20:30.363Z,100404.00
2022-10-26T04:23:02.213Z,100402.00
2022-10-26T04:25:32.965Z,100412.00
2022-10-26T04:28:03.151Z,100402.00
2022-10-26T04:30:30.545Z,100403.00
2022-10-26T04:32:57.444Z,100411.00
2022-10-26T04:35:24.605Z,100407.00
2022-10-26T04:37:51.672Z,100408.00
2022-10-26T04:40:18.822Z,100409.00
2022-10-26T04:42:47.986Z,100409.00
2022-10-26T04:45:16.460Z,100402.00
2022-10-26T04:47:44.238Z,100407.00
2022-10-26T04:50:13.799Z,100406.00
2022-10-26T04:52:41.236Z,100409.00
2022-10-26T04:55:08.693Z,100410.00
2022-10-26T04:57:36.020Z,100407.00
2022-10-26T05:00:05.261Z,100405.00
2022-10-26T05:02:32.289Z,100415.00
2022-10-26T05:04:59.405Z,100413.00
2022-10-26T05:07:26.349Z,100422.00
2022-10-26T05:09:53.245Z,100425.00
2022-10-26T05:12:20.343Z,100424.00
2022-10-26T05:14:47.260Z,100429.00
2022-10-26T05:17:14.235Z,100426.00
2022-10-26T05:19:41.279Z,100429.00
2022-10-26T05:22:08.442Z,100433.00
2022-10-26T05:24:35.396Z,100425.00
2022-10-26T05:27:02.312Z,100422.00
2022-10-26T05:29:29.229Z,100430.00
2022-10-26T05:31:56.228Z,100430.00
2022-10-26T05:34:23.191Z,100437.00
2022-10-26T05:36:53.205Z,100441.00
2022-10-26T05:39:21.332Z,100445.00
2022-10-26T05:41:48.248Z,100443.00
2022-10-26T05:44:15.163Z,100452.00
2022-10-26T05:46:43.219Z,100427.00
2022-10-26T05:49:10.233Z,100450.00
2022-10-26T05:51:37.192Z,100450.00
2022-10-26T05:54:04.460Z,100455.00
2022-10-26T05:56:40.239Z,100456.00
2022-10-26T05:59:16.109Z,100454.00
2022-10-26T06:02:13.813Z,100459.00
2022-10-26T06:04:48.726Z,100472.00
2022-10-26T06:07:21.593Z,100472.00
2022-10-26T06:09:49.665Z,100462.00
2022-10-26T06:12:19.563Z,100449.00
2022-10-26T06:14:47.480Z,100461.00
2022-10-26T06:17:44.469Z,100465.00
2022-10-26T06:20:50.617Z,100471.00
2022-10-26T06:23:41.270Z,100470.00
2022-10-26T06:26:32.713Z,100471.00
2022-10-26T06:29:22.945Z,100478.00
2022-10-26T06:31:50.097Z,100473.00
2022-10-26T06:34:27.379Z,100484.00
2022-10-26T06:36:58.226Z,100483.00
2022-10-26T06:39:29.644Z,100489.00
2022-10-26T06:41:58.484Z,100498.00
2022-10-26T06:44:26.028Z,100502.00
2022-10-26T06:47:19.831Z,100503.00
2022-10-26T06:50:20.360Z,100498.00
2022-10-26T06:53:03.611Z,100500.00
2022-10-26T06:55:42.196Z,100512.00
2022-10-26T06:58:20.072Z,100509.00
2022-10-26T07:00:51.032Z,100521.00
2022-10-26T07:03:18.108Z,100523.00
2022-10-26T07:05:46.186Z,100524.00
2022-10-26T07:08:13.454Z,100533.00
2022-10-26T07:10:42.170Z,100521.00
2022-10-26T07:13:10.964Z,100529.00
2022-10-26T07:15:39.748Z,100529.00
2022-10-26T07:18:08.570Z,100530.00
2022-10-26T07:20:41.206Z,100531.00
2022-10-26T07:23:12.654Z,100528.00
2022-10-26T07:25:40.516Z,100537.00
2022-10-26T07:28:10.541Z,100520.00
2022-10-26T07:30:39.963Z,100533.00
2022-10-26T07:33:13.464Z,100537.00
2022-10-26T07:35:41.624Z,100543.00
2022-10-26T07:38:13.508Z,100540.00
2022-10-26T07:40:40.418Z,100540.00
2022-10-26T07:43:07.365Z,100547.00
2022-10-26T07:45:34.316Z,100554.00
2022-10-26T07:48:01.260Z,100551.00
2022-10-26T07:50:28.697Z,100554.00
2022-10-26T07:52:55.720Z,100552.00
2022-10-26T07:55:22.628Z,100548.00
2022-10-26T07:57:52.614Z,100557.00
2022-10-26T08:00:22.403Z,100530.00
2022-10-26T08:02:49.583Z,100556.00
2022-10-26T08:05:16.826Z,100554.00
2022-10-26T08:07:47.788Z,100561.00
2022-10-26T08:10:16.018Z,100560.00
2022-10-26T08:12:44.259Z,100562.00
2022-10-26T08:15:11.747Z,100561.00
2022-10-26T08:17:38.772Z,100562.00
2022-10-26T08:20:06.490Z,100574.00
2022-10-26T08:22:33.412Z,100564.00
2022-10-26T08:25:00.315Z,100567.00
2022-10-26T08:27:27.327Z,100559.00
2022-10-26T08:29:54.260Z,100561.00
2022-10-26T08:32:21.207Z,100571.00
2022-10-26T08:34:48.169Z,100574.00
2022-10-26T08:37:15.118Z,100570.00
2022-10-26T08:39:42.027Z,100575.00
2022-10-26T08:42:26.197Z,100592.00
2022-10-26T08:45:01.312Z,100603.00
2022-10-26T08:47:43.807Z,100593.00
2022-10-26T08:50:40.547Z,100595.00
2022-10-26T08:53:51.730Z,100602.00
2022-10-26T08:56:25.360Z,100601.00
2022-10-26T08:58:58.938Z,100593.00
2022-10-26T09:01:26.021Z,100608.00
2022-10-26T09:03:53.265Z,100607.00
2022-10-26T09:06:42.004Z,100605.00
2022-10-26T09:09:17.580Z,100612.00
2022-10-26T09:12:07.913Z,100621.00
2022-10-26T09:14:51.769Z,100618.00
2022-10-26T09:17:39.749Z,100607.00
2022-10-26T09:20:35.767Z,100630.00
2022-10-26T09:23:37.336Z,100617.00
2022-10-26T09:26:13.981Z,100614.00
2022-10-26T09:28:44.785Z,100592.00
2022-10-26T09:31:17.786Z,100634.00
2022-10-26T09:33:44.944Z,100639.00
2022-10-26T09:36:20.827Z,100643.00
2022-10-26T09:39:04.202Z,100635.00
2022-10-26T09:41:46.337Z,100644.00
2022-10-26T09:44:34.698Z,100641.00
2022-10-26T09:47:19.754Z,100641.00
2022-10-26T09:49:58.887Z,100631.00
2022-10-26T09:52:25.843Z,100644.00
2022-10-26T09:54:52.776Z,100646.00
2022-10-26T09:57:21.209Z,100649.00
2022-10-26T09:59:50.621Z,100649.00
2022-10-26T10:02:40.443Z,100647.00
2022-10-26T10:05:51.342Z,100655.00
2022-10-26T10:08:24.350Z,100660.00
2022-10-26T10:11:00.052Z,100660.00
2022-10-26T10:13:31.636Z,100655.00
2022-10-26T10:16:20.050Z,100652.00
2022-10-26T10:18:59.352Z,100647.00
2022-10-26T10:21:45.452Z,100655.00
2022-10-26T10:24:29.642Z,100661.00
2022-10-26T10:27:05.518Z,100665.00
2022-10-26T10:29:40.481Z,100659.00
2022-10-26T10:32:35.829Z,100668.00
2022-10-26T10:35:29.865Z,100669.00
2022-10-26T10:37:57.940Z,100665.00
2022-10-26T10:40:31.481Z,100670.00
2022-10-26T10:43:13.335Z,100677.00
2022-10-26T10:45:46.220Z,100678.00
2022-10-26T10:48:13.048Z,100681.00
2022-10-26T10:50:51.708Z,100677.00
2022-10-26T10:53:31.849Z,100685.00
2022-10-26T10:56:48.914Z,100689.00
2022-10-26T11:00:01.372Z,100685.00
2022-10-26T11:03:16.808Z,100682.00
2022-10-26T11:06:11.242Z,100688.00
2022-10-26T11:08:57.256Z,100679.00
2022-10-26T11:11:45.483Z,100688.00
2022-10-26T11:14:30.692Z,100688.00
2022-10-26T11:17:19.734Z,100685.00
2022-10-26T11:20:14.903Z,100687.00
2022-10-26T11:23:11.140Z,100693.00
2022-10-26T11:26:15.105Z,100686.00
2022-10-26T11:28:58.229Z,100693.00
2022-10-26T11:31:39.944Z,100689.00
2022-10-26T11:34:50.999Z,100696.00
2022-10-26T11:37:32.696Z,100691.00
2022-10-26T11:40:27.466Z,100695.00
2022-10-26T11:43:23.093Z,100694.00
2022-10-26T11:46:33.134Z,100696.00
2022-10-26T11:49:27.006Z,100694.00
2022-10-26T11:52:08.910Z,100702.00
2022-10-26T11:54:52.440Z,100689.00
2022-10-26T11:57:22.073Z,100695.00
2022-10-26T12:00:02.186Z,100687.00
2022-10-26T12:02:29.306Z,100693.00
2022-10-26T12:05:16.628Z,100693.00
2022-10-26T12:08:08.592Z,100707.00
2022-10-26T12:10:41.914Z,100694.00
2022-10-26T12:13:22.458Z,100708.00
2022-10-26T12:16:03.910Z,100704.00
2022-10-26T12:19:04.246Z,100703.00
2022-10-26T12:21:33.303Z,100706.00
2022-10-26T12:24:22.601Z,100709.00
2022-10-26T12:27:01.880Z,100719.00
2022-10-26T12:29:30.429Z,100714.00
2022-10-26T12:31:58.202Z,100713.00
2022-10-26T12:34:31.118Z,100710.00
2022-10-26T12:37:24.058Z,100700.00
2022-10-26T12:39:51.512Z,100717.00
2022-10-26T12:42:18.348Z,100717.00
2022-10-26T12:44:48.327Z,100721.00
2022-10-26T12:47:30.764Z,100720.00
2022-10-26T12:50:06.685Z,100715.00
2022-10-26T12:52:48.858Z,100716.00
2022-10-26T12:55:40.476Z,100724.00
2022-10-26T12:58:27.604Z,100724.00
2022-10-26T13:01:00.244Z,100729.00
2022-10-26T13:04:04.015Z,100726.00
2022-10-26T13:07:19.449Z,100721.00
2022-10-26T13:10:17.530Z,100723.00
2022-10-26T13:13:02.848Z,100698.00
2022-10-26T13:15:38.924Z,100649.00
2022-10-26T13:18:18.873Z,100718.00
2022-10-26T13:21:14.001Z,100722.00
2022-10-26T13:23:48.299Z,100728.00
2022-10-26T13:26:19.164Z,100730.00
2022-10-26T13:29:04.486Z,100715.00
2022-10-26T13:31:31.511Z,100720.00
2022-10-26T13:34:04.184Z,100728.00
2022-10-26T13:36:47.294Z,100727.00
2022-10-26T13:39:21.853Z,100725.00
2022-10-26T13:41:52.662Z,100723.00
2022-10-26T13:44:44.545Z,100730.00
2022-10-26T13:47:27.116Z,100738.00
2022-10-26T13:50:03.229Z,100742.00
2022-10-26T13:52:42.503Z,100736.00
2022-10-26T13:55:39.777Z,100735.00
2022-10-26T13:58:36.364Z,100743.00
2022-10-26T14:01:16.970Z,100750.00
2022-10-26T14:03:45.016Z,100748.00
2022-10-26T14:06:40.265Z,100740.00
2022-10-26T14:09:18.810Z,100738.00
2022-10-26T14:11:58.799Z,100748.00
2022-10-26T14:14:38.643Z,100741.00
2022-10-26T14:17:06.186Z,100735.00
2022-10-26T14:19:40.110Z,100741.00
2022-10-26T14:22:11.587Z,100734.00
2022-10-26T14:24:48.247Z,100743.00
2022-10-26T14:27:25.438Z,100743.00
2022-10-26T14:30:17.145Z,100747.00
2022-10-26T14:32:41.884Z,100745.00
2022-10-26T14:35:16.478Z,100751.00
2022-10-26T14:38:01.192Z,100743.00
2022-10-26T14:40:35.208Z,100751.00
2022-10-26T14:43:05.478Z,100747.00
2022-10-26T14:45:54.430Z,100746.00
2022-10-26T14:48:33.168Z,100752.00
2022-10-26T14:51:17.882Z,100747.00
2022-10-26T14:53:54.730Z,100753.00
2022-10-26T14:56:50.308Z,100750.00
2022-10-26T14:59:28.119Z,100748.00
2022-10-26T15:02:22.121Z,100743.00
2022-10-26T15:05:17.535Z,100743.00
2022-10-26T15:07:48.654Z,100753.00
2022-10-26T15:10:38.065Z,100753.00
2022-10-26T15:13:33.677Z,100758.00
2022-10-26T15:16:23.434Z,100751.00
2022-10-26T15:19:23.773Z,100752.00
2022-10-26T15:21:54.477Z,100753.00
2022-10-26T15:24:37.711Z,100758.00
2022-10-26T15:27:17.182Z,100756.00
2022-10-26T15:29:50.791Z,100759.00
2022-10-26T15:32:33.393Z,100761.00
2022-10-26T15:35:23.588Z,100755.00
2022-10-26T15:37:53.343Z,100766.00
2022-10-26T15:40:20.538Z,100770.00
2022-10-26T15:42:53.494Z,100768.00
2022-10-26T15:45:28.800Z,100768.00
2022-10-26T15:47:58.881Z,100768.00
2022-10-26T15:50:28.820Z,100772.00
2022-10-26T15:53:17.610Z,100777.00
2022-10-26T15:55:44.747Z,100773.00
2022-10-26T15:58:12.176Z,100771.00
2022-10-26T16:00:39.133Z,100774.00
2022-10-26T16:03:06.090Z,100782.00
2022-10-26T16:05:33.373Z,100788.00
2022-10-26T16:08:00.452Z,100794.00
2022-10-26T16:10:27.570Z,100795.00
2022-10-26T16:12:55.078Z,100812.00
2022-10-26T16:27:45.765Z,100807.00
2022-10-26T16:30:14.331Z,100805.00
2022-10-26T16:32:42.286Z,100798.00
2022-10-26T16:35:11.610Z,100804.00
2022-10-26T16:37:39.471Z,100806.00
2022-10-26T16:40:08.708Z,100798.00
2022-10-26T16:42:35.846Z,100807.00
2022-10-26T16:45:03.405Z,100811.00
2022-10-26T16:47:37.682Z,100810.00
2022-10-26T16:50:05.428Z,100813.00
2022-10-26T16:52:35.704Z,100810.00
2022-10-26T16:55:04.196Z,100814.00
2022-10-26T16:57:31.457Z,100814.00
2022-10-26T16:59:58.512Z,100809.00
2022-10-26T17:02:25.678Z,100814.00
2022-10-26T17:04:52.662Z,100816.00
2022-10-26T17:07:22.524Z,100821.00
2022-10-26T17:09:49.647Z,100821.00
2022-10-26T17:12:16.972Z,100834.00
2022-10-26T17:14:44.076Z,100832.00
2022-10-26T17:17:11.112Z,100831.00
2022-10-26T17:19:38.213Z,100826.00
2022-10-26T17:22:07.925Z,100830.00
2022-10-26T17:24:36.275Z,100845.00
2022-10-26T17:27:06.012Z,100844.00
2022-10-26T17:29:32.962Z,100839.00
2022-10-26T17:31:59.982Z,100838.00
2022-10-26T17:34:26.981Z,100844.00
2022-10-26T17:36:53.906Z,100845.00
2022-10-26T17:39:21.149Z,100857.00
2022-10-26T17:41:48.108Z,100856.00
2022-10-26T17:44:15.558Z,100857.00
2022-10-26T17:46:42.534Z,100863.00
2022-10-26T17:49:09.532Z,100851.00
2022-10-26T17:51:36.533Z,100858.00
2022-10-26T17:54:03.714Z,100859.00
2022-10-26T17:56:33.538Z,100858.00
2022-10-26T17:59:04.565Z,100865.00
2022-10-26T18:01:32.544Z,100865.00
2022-10-26T18:04:00.402Z,100866.00
2022-10-26T18:06:27.828Z,100862.00
2022-10-26T18:08:57.890Z,100864.00
2022-10-26T18:11:27.144Z,100861.00
2022-10-26T18:13:56.087Z,100857.00
2022-10-26T18:16:26.396Z,100865.00
2022-10-26T18:19:00.650Z,100861.00
2022-10-26T18:21:33.890Z,100867.00
2022-10-26T18:24:00.966Z,100861.00
2022-10-26T18:26:30.691Z,100862.00
2022-10-26T18:28:59.674Z,100865.00
2022-10-26T18:31:28.898Z,100860.00
2022-10-26T18:33:58.672Z,100874.00
2022-10-26T18:36:27.493Z,100854.00
2022-10-26T18:38:54.805Z,100869.00
2022-10-26T18:41:24.400Z,100870.00
2022-10-26T18:43:55.111Z,100877.00
2022-10-26T18:46:27.531Z,100873.00
2022-10-26T18:48:56.217Z,100885.00
2022-10-26T18:51:28.904Z,100881.00
2022-10-26T18:53:57.833Z,100888.00
2022-10-26T18:56:25.639Z,100883.00
2022-10-26T18:58:58.453Z,100883.00
2022-10-26T19:01:32.207Z,100895.00
2022-10-26T19:04:04.727Z,100894.00
2022-10-26T19:06:43.135Z,100893.00
2022-10-26T19:09:10.292Z,100892.00
2022-10-26T19:11:38.099Z,100893.00
2022-10-26T19:14:05.432Z,100893.00
2022-10-26T19:16:45.530Z,100899.00
2022-10-26T19:19:16.514Z,100905.00
2022-10-26T19:21:47.330Z,100905.00
2022-10-26T19:24:29.226Z,100912.00
2022-10-26T19:26:59.190Z,100916.00
2022-10-26T19:29:27.568Z,100922.00
2022-10-26T19:31:54.857Z,100929.00
2022-10-26T19:34:22.348Z,100903.00
2022-10-26T19:36:49.388Z,100932.00
2022-10-26T19:39:19.077Z,100927.00
2022-10-26T19:41:46.882Z,100934.00
2022-10-26T19:44:15.219Z,100926.00
2022-10-26T19:46:43.794Z,100942.00
2022-10-26T19:49:12.959Z,100937.00
2022-10-26T19:51:40.293Z,100949.00
2022-10-26T19:54:07.715Z,100941.00
2022-10-26T19:56:37.127Z,100955.00
2022-10-26T19:59:05.354Z,100955.00
2022-10-26T20:01:32.705Z,100951.00
2022-10-26T20:04:02.427Z,100957.00
2022-10-26T20:06:30.651Z,100959.00
2022-10-26T20:08:57.958Z,100971.00
2022-10-26T20:11:24.912Z,100958.00
2022-10-26T20:13:51.838Z,100960.00
2022-10-26T20:16:18.838Z,100962.00
2022-10-26T20:18:48.133Z,100957.00
2022-10-26T20:21:17.535Z,100941.00
2022-10-26T20:23:45.457Z,100956.00
2022-10-26T20:26:19.733Z,100951.00
2022-10-26T20:28:53.500Z,100961.00
2022-10-26T20:31:20.569Z,100953.00
2022-10-26T20:33:55.286Z,100959.00
2022-10-26T20:36:22.777Z,100958.00
2022-10-26T20:38:50.153Z,100955.00
2022-10-26T20:41:17.760Z,100966.00
2022-10-26T20:43:44.998Z,100981.00
2022-10-26T20:46:27.744Z,100965.00
2022-10-26T20:48:55.504Z,100964.00
2022-10-26T20:52:26.773Z,100965.00
2022-10-26T20:55:12.278Z,100958.00
2022-10-26T20:57:44.997Z,100961.00
2022-10-26T21:00:12.642Z,100968.00
2022-10-26T21:02:39.654Z,100965.00
2022-10-26T21:05:07.054Z,100955.00
2022-10-26T21:07:33.990Z,100963.00
2022-10-26T21:10:00.918Z,100965.00
2022-10-26T21:12:27.974Z,100963.00
2022-10-26T21:14:54.941Z,100966.00
2022-10-26T21:17:21.898Z,100964.00
2022-10-26T21:19:48.907Z,100964.00
2022-10-26T21:22:15.887Z,100970.00
2022-10-26T21:24:42.893Z,100939.00
2022-10-26T21:27:09.852Z,100963.00
2022-10-26T21:29:36.836Z,100967.00
2022-10-26T21:32:04.193Z,100961.00
2022-10-26T21:34:31.087Z,100970.00
2022-10-26T21:36:58.044Z,100963.00
2022-10-26T21:39:24.987Z,100967.00
2022-10-26T21:41:51.890Z,100968.00
2022-10-26T21:44:40.501Z,100972.00
2022-10-26T21:47:05.848Z,100970.00
2022-10-26T21:49:32.802Z,100960.00
2022-10-26T21:51:59.722Z,100971.00
2022-10-26T21:54:26.614Z,100937.00
2022-10-26T21:56:53.542Z,100958.00
2022-10-26T21:59:20.566Z,100971.00
2022-10-26T22:05:57.204Z,100977.00
2022-10-26T22:08:24.108Z,100969.00
2022-10-26T22:10:51.076Z,100978.00
2022-10-26T22:13:17.933Z,100977.00
2022-10-26T22:15:44.922Z,100975.00
2022-10-26T22:18:11.766Z,100986.00
2022-10-26T22:20:38.633Z,100985.00
2022-10-26T22:25:37.449Z,100982.00
2022-10-26T22:28:04.491Z,100991.00
2022-10-26T22:30:31.306Z,100990.00
2022-10-26T22:32:58.146Z,100980.00
2022-10-26T22:35:29.308Z,100985.00
2022-10-26T22:37:57.436Z,100985.00
2022-10-26T22:40:24.320Z,100959.00
2022-10-26T22:42:52.332Z,100978.00
2022-10-26T22:45:19.422Z,100976.00
2022-10-26T22:47:46.284Z,100979.00
2022-10-26T22:50:13.143Z,100977.00
2022-10-26T22:52:40.176Z,100992.00
2022-10-26T22:55:07.864Z,100975.00
2022-10-26T22:57:34.676Z,100972.00
2022-10-26T23:00:01.593Z,100962.00
2022-10-26T23:02:28.444Z,100963.00
2022-10-26T23:04:55.353Z,100963.00
2022-10-26T23:07:25.988Z,100959.00
2022-10-26T23:09:52.870Z,100961.00
2022-10-26T23:12:19.728Z,100964.00
2022-10-26T23:14:46.549Z,100964.00
2022-10-26T23:17:13.703Z,100964.00
2022-10-26T23:19:40.515Z,100966.00
2022-10-26T23:22:07.414Z,100966.00
2022-10-26T23:24:34.356Z,100972.00
2022-10-26T23:27:01.539Z,100977.00
2022-10-26T23:29:28.450Z,100977.00
2022-10-26T23:31:55.462Z,100973.00
2022-10-26T23:34:22.395Z,100981.00
2022-10-26T23:36:50.551Z,100983.00
2022-10-26T23:39:17.644Z,100985.00
2022-10-26T23:41:44.588Z,100986.00
2022-10-26T23:44:11.492Z,100994.00
2022-10-26T23:46:38.409Z,100998.00
2022-10-26T23:49:05.717Z,100988.00
2022-10-26T23:51:32.672Z,100997.00
2022-10-26T23:53:59.565Z,100999.00
2022-10-26T23:56:26.502Z,101001.00
2022-10-26T23:58:53.624Z,101000.00
